Time;durP1;ratioP1;P1;durP2;ratioP2;P2;SDS_P1;SDS_P2;PMS_P1;PMS_P2;Temp;Humidity;BMP_temperature;BMP_pressure;BME280_temperature;BME280_humidity;BME280_pressure;Samples;Min_cycle;Max_cycle;Signal;HPM_P1;HPM_P2
2022/12/10 00:01:41;;;;;;;71.40;46.50;;;;;;;0.56;100.00;97585.67;105918;1290;61058;-74
2022/12/10 00:04:07;;;;;;;76.20;49.90;;;;;;;0.55;100.00;97585.35;105924;1291;62968;-74
2022/12/10 00:06:35;;;;;;;75.20;49.30;;;;;;;0.55;100.00;97590.62;105689;1286;59852;-74
2022/12/10 00:09:04;;;;;;;68.90;48.60;;;;;;;0.56;100.00;97589.88;105940;1290;59710;-73
2022/12/10 00:11:30;;;;;;;71.10;50.00;;;;;;;0.56;100.00;97586.02;105782;1293;65276;-73
2022/12/10 00:13:57;;;;;;;65.30;47.00;;;;;;;0.55;100.00;97586.05;105915;1291;59845;-74
2022/12/10 00:16:25;;;;;;;74.00;51.20;;;;;;;0.55;100.00;97586.05;105694;1293;64100;-73
2022/12/10 00:18:52;;;;;;;71.90;51.40;;;;;;;0.56;100.00;97590.21;105928;1291;59903;-73
2022/12/10 00:21:21;;;;;;;62.00;46.90;;;;;;;0.57;100.00;97582.29;105775;1292;60031;-74
2022/12/10 00:23:47;;;;;;;68.10;47.60;;;;;;;0.58;100.00;97581.39;105915;1290;67843;-74
2022/12/10 00:26:18;;;;;;;80.20;52.80;;;;;;;0.58;100.00;97582.77;105774;1290;59728;-74
2022/12/10 00:28:45;;;;;;;72.90;50.70;;;;;;;0.59;100.00;97584.83;105911;1290;72809;-74
2022/12/10 00:31:18;;;;;;;80.70;55.90;;;;;;;0.60;100.00;97582.86;105930;1283;60172;-74
2022/12/10 00:33:46;;;;;;;66.10;45.20;;;;;;;0.61;100.00;97579.14;105916;1290;61220;-74
2022/12/10 00:36:14;;;;;;;56.80;44.00;;;;;;;0.62;100.00;97580.30;105912;1291;66678;-74
2022/12/10 00:38:41;;;;;;;62.70;46.80;;;;;;;0.62;100.00;97579.75;105923;1290;60905;-74
2022/12/10 00:41:07;;;;;;;60.80;46.10;;;;;;;0.63;100.00;97586.73;105922;1290;73699;-74
2022/12/10 00:43:34;;;;;;;67.20;47.40;;;;;;;0.63;100.00;97587.08;105918;1291;59926;-74
2022/12/10 00:46:00;;;;;;;59.80;44.80;;;;;;;0.63;100.00;97586.20;105927;1289;59634;-73
2022/12/10 00:48:27;;;;;;;65.90;48.40;;;;;;;0.62;100.00;97586.39;105921;1290;74615;-74
2022/12/10 00:51:07;;;;;;;65.70;46.30;;;;;;;0.62;100.00;97590.44;105917;1283;59773;-73
2022/12/10 00:53:35;;;;;;;59.50;43.60;;;;;;;0.62;100.00;97597.80;105920;1290;65065;-74
2022/12/10 00:56:01;;;;;;;59.70;43.30;;;;;;;0.62;100.00;97599.70;105917;1291;59645;-73
2022/12/10 00:58:29;;;;;;;59.40;41.00;;;;;;;0.62;100.00;97606.17;105918;1291;59789;-73
2022/12/10 01:01:26;;;;;;;53.20;37.90;;;;;;;0.62;100.00;97610.17;105201;1291;1002372;-73
2022/12/10 01:03:56;;;;;;;43.70;34.50;;;;;;;0.61;100.00;97603.41;105921;1290;59641;-73
2022/12/10 01:06:29;;;;;;;42.50;34.00;;;;;;;0.61;100.00;97603.95;105773;1291;65254;-73
2022/12/10 01:08:57;;;;;;;36.10;31.20;;;;;;;0.62;100.00;97605.65;105923;1283;59808;-73
2022/12/10 01:11:30;;;;;;;39.30;32.40;;;;;;;0.61;100.00;97606.70;105913;1290;59696;-73
2022/12/10 01:13:57;;;;;;;46.80;35.30;;;;;;;0.62;100.00;97612.97;105911;1290;74785;-73
2022/12/10 01:16:24;;;;;;;51.70;37.00;;;;;;;0.64;100.00;97614.63;105912;1290;69090;-73
2022/12/10 01:18:55;;;;;;;40.70;33.60;;;;;;;0.64;100.00;97612.17;105903;1290;65336;-74
2022/12/10 01:21:21;;;;;;;;;;;;;;;0.65;100.00;97607.96;105903;1298;59684;-74
2022/12/10 01:23:49;;;;;;;36.40;29.70;;;;;;;0.65;100.00;97610.20;105921;1287;59720;-74
2022/12/10 01:26:21;;;;;;;35.50;29.00;;;;;;;0.65;100.00;97615.11;105935;1290;75268;-74
2022/12/10 01:28:47;;;;;;;33.80;28.00;;;;;;;0.66;100.00;97612.81;105920;1290;60121;-74
2022/12/10 01:31:22;;;;;;;34.80;28.90;;;;;;;0.65;100.00;97618.07;105904;1291;72527;-74
2022/12/10 01:33:48;;;;;;;77.40;49.90;;;;;;;0.65;100.00;97621.38;105905;1291;59708;-74
2022/12/10 01:36:26;;;;;;;60.60;44.30;;;;;;;0.65;100.00;97627.68;105925;1284;59919;-73
2022/12/10 01:38:52;;;;;;;45.90;35.40;;;;;;;0.66;100.00;97637.79;105578;1296;75007;-73
2022/12/10 01:41:25;;;;;;;40.00;32.50;;;;;;;0.66;100.00;97639.88;105924;1284;60774;-74
2022/12/10 01:43:59;;;;;;;38.10;30.70;;;;;;;0.68;100.00;97639.98;105937;1284;63895;-74
2022/12/10 01:46:31;;;;;;;35.20;28.10;;;;;;;0.69;100.00;97634.17;105926;1291;59851;-74
2022/12/10 01:48:59;;;;;;;67.20;42.60;;;;;;;0.71;100.00;97636.69;105941;1290;59639;-74
2022/12/10 01:51:27;;;;;;;60.90;41.80;;;;;;;0.71;100.00;97635.10;105214;1290;1002230;-74
2022/12/10 01:53:55;;;;;;;74.90;50.50;;;;;;;0.71;100.00;97633.70;105947;1290;60129;-74
2022/12/10 01:56:22;;;;;;;63.80;47.10;;;;;;;0.71;100.00;97633.35;105920;1290;59721;-73
2022/12/10 01:58:51;;;;;;;48.60;39.90;;;;;;;0.71;100.00;97632.46;105929;1274;59783;-74
2022/12/10 02:01:40;;;;;;;46.50;37.90;;;;;;;0.72;100.00;97630.16;105931;1290;59829;-74
2022/12/10 02:04:17;;;;;;;37.30;32.20;;;;;;;0.72;100.00;97629.48;105937;1290;66844;-73
2022/12/10 02:07:05;;;;;;;44.00;33.50;;;;;;;0.73;100.00;97632.36;105916;1289;68134;-73
2022/12/10 02:09:58;;;;;;;39.60;34.20;;;;;;;0.73;100.00;97628.88;105918;1290;64001;-73
2022/12/10 02:12:35;;;;;;;33.40;29.10;;;;;;;0.73;100.00;97626.42;105929;1290;59737;-74
2022/12/10 02:15:10;;;;;;;33.20;29.40;;;;;;;0.74;100.00;97628.46;105935;1291;59681;-74
2022/12/10 02:17:44;;;;;;;38.50;31.20;;;;;;;0.75;100.00;97632.13;105926;1290;68011;-73
2022/12/10 02:20:20;;;;;;;33.20;28.80;;;;;;;0.74;100.00;97637.41;104223;1293;1006442;-73
2022/12/10 02:23:14;;;;;;;29.80;24.90;;;;;;;0.74;100.00;97630.94;105931;1291;64346;-73
2022/12/10 02:25:58;;;;;;;30.10;26.00;;;;;;;0.75;100.00;97629.11;105283;1298;59960;-73
2022/12/10 02:28:27;;;;;;;33.20;28.70;;;;;;;0.75;100.00;97636.83;105351;1295;59894;-73
2022/12/10 02:30:54;;;;;;;33.10;26.80;;;;;;;0.74;100.00;97644.23;105441;1299;74553;-73
2022/12/10 02:33:22;;;;;;;27.10;23.80;;;;;;;0.73;100.00;97645.65;105437;1297;61384;-73
2022/12/10 02:35:51;;;;;;;34.00;29.50;;;;;;;0.73;100.00;97645.14;105447;1297;63434;-73
2022/12/10 02:38:26;;;;;;;28.00;23.70;;;;;;;0.73;100.00;97649.33;105430;1297;59828;-73
2022/12/10 02:40:57;;;;;;;28.90;25.30;;;;;;;0.72;100.00;97653.76;105376;1298;59780;-73
2022/12/10 02:43:27;;;;;;;27.00;23.90;;;;;;;0.72;100.00;97659.49;105438;1297;68127;-73
2022/12/10 02:45:54;;;;;;;28.20;23.80;;;;;;;0.73;100.00;97666.98;105457;1297;61195;-73
2022/12/10 02:48:20;;;;;;;27.50;24.60;;;;;;;0.73;100.00;97669.98;105271;1297;72801;-73
2022/12/10 02:50:47;;;;;;;34.60;29.00;;;;;;;0.73;100.00;97669.80;105432;1290;59927;-73
2022/12/10 02:53:13;;;;;;;35.80;31.70;;;;;;;0.72;100.00;97662.66;105447;1297;59693;-73
2022/12/10 02:56:06;;;;;;;31.90;28.50;;;;;;;0.72;100.00;97649.04;105449;1297;59756;-73
2022/12/10 02:58:57;;;;;;;31.20;25.30;;;;;;;0.72;100.00;97643.28;105434;1281;59832;-73
2022/12/10 03:01:27;;;;;;;26.60;23.70;;;;;;;0.70;100.00;97641.99;105354;1300;64982;-73
2022/12/10 03:04:03;;;;;;;25.10;22.40;;;;;;;0.68;100.00;97644.89;105766;1287;59760;-73
2022/12/10 03:06:38;;;;;;;27.10;22.00;;;;;;;0.67;100.00;97645.77;105934;1285;59831;-73
2022/12/10 03:09:09;;;;;;;26.50;22.60;;;;;;;0.66;100.00;97643.02;105923;1284;67706;-73
2022/12/10 03:11:38;;;;;;;26.70;23.90;;;;;;;0.65;100.00;97651.09;105763;1283;67327;-73
2022/12/10 03:14:15;;;;;;;31.90;28.50;;;;;;;0.65;100.00;97652.48;105941;1291;64224;-73
2022/12/10 03:16:55;;;;;;;32.70;28.70;;;;;;;0.66;100.00;97659.64;105929;1291;60013;-73
2022/12/10 03:19:33;;;;;;;31.50;27.20;;;;;;;0.67;100.00;97663.12;105924;1290;59930;-73
2022/12/10 03:22:02;;;;;;;34.70;28.10;;;;;;;0.68;100.00;97666.20;105931;1290;68028;-73
2022/12/10 03:24:30;;;;;;;28.60;24.50;;;;;;;0.68;100.00;97667.07;105945;1291;60236;-73
2022/12/10 03:26:57;;;;;;;27.80;24.30;;;;;;;0.68;100.00;97670.05;105940;1287;64713;-74
2022/12/10 03:29:28;;;;;;;30.10;24.20;;;;;;;0.67;100.00;97674.60;105931;1290;59665;-74
2022/12/10 03:31:54;;;;;;;33.40;28.30;;;;;;;0.68;100.00;97679.83;105947;1290;59681;-74
2022/12/10 03:34:21;;;;;;;55.80;38.60;;;;;;;0.68;100.00;97677.02;105936;1284;60369;-74
2022/12/10 03:36:49;;;;;;;74.70;46.10;;;;;;;0.67;100.00;97677.96;105902;1284;60812;-74
2022/12/10 03:39:16;;;;;;;67.70;42.80;;;;;;;0.67;100.00;97683.34;105955;1290;64609;-74
2022/12/10 03:41:42;;;;;;;70.70;46.30;;;;;;;0.67;100.00;97685.80;105678;1293;60058;-74
2022/12/10 03:44:08;;;;;;;72.20;45.60;;;;;;;0.67;100.00;97688.98;105934;1290;59660;-74
2022/12/10 03:46:34;;;;;;;55.50;40.20;;;;;;;0.66;100.00;97692.13;105941;1291;59748;-74
2022/12/10 03:49:03;;;;;;;43.50;34.80;;;;;;;0.66;100.00;97691.11;105936;1290;60213;-74
2022/12/10 03:51:29;;;;;;;41.10;33.20;;;;;;;0.64;100.00;97685.75;105938;1290;71957;-74
2022/12/10 03:53:55;;;;;;;38.60;32.70;;;;;;;0.64;100.00;97682.27;105936;1276;59786;-73
2022/12/10 03:56:23;;;;;;;33.70;29.80;;;;;;;0.65;100.00;97681.89;105954;1283;59757;-73
2022/12/10 03:58:49;;;;;;;45.00;36.20;;;;;;;0.63;100.00;97686.33;105920;1287;59843;-73
2022/12/10 04:01:16;;;;;;;40.50;33.80;;;;;;;0.62;100.00;97696.54;105960;1283;59652;-72
2022/12/10 04:03:43;;;;;;;39.10;31.30;;;;;;;0.62;100.00;97699.87;105948;1284;59769;-72
2022/12/10 04:06:15;;;;;;;51.30;37.50;;;;;;;0.61;100.00;97704.43;105807;1285;59746;-73
2022/12/10 04:08:41;;;;;;;53.30;38.40;;;;;;;0.61;100.00;97708.27;105949;1283;59755;-73
2022/12/10 04:11:09;;;;;;;78.40;52.50;;;;;;;0.61;100.00;97712.49;105939;1283;59695;-73
2022/12/10 04:16:26;;;;;;;48.00;39.60;;;;;;;0.60;100.00;97709.73;105915;1297;73671;-72
2022/12/10 04:19:19;;;;;;;45.20;38.00;;;;;;;0.59;100.00;97710.14;105900;1288;59726;-74
2022/12/10 04:27:28;;;;;;;35.80;29.40;;;;;;;0.57;100.00;97710.02;105259;1297;59958;-72
2022/12/10 04:29:56;;;;;;;34.50;27.70;;;;;;;0.58;100.00;97714.19;105434;1297;65141;-74
2022/12/10 04:32:23;;;;;;;38.30;32.30;;;;;;;0.57;100.00;97725.42;105292;1298;59775;-74
2022/12/10 04:34:49;;;;;;;45.90;34.50;;;;;;;0.56;100.00;97738.76;105425;1296;59921;-75
2022/12/10 04:37:17;;;;;;;41.00;33.40;;;;;;;0.56;100.00;97745.42;105460;1291;59811;-75
2022/12/10 04:39:44;;;;;;;45.70;35.50;;;;;;;0.54;100.00;97743.55;105460;1297;59722;-73
2022/12/10 04:42:10;;;;;;;58.90;43.60;;;;;;;0.53;100.00;97739.96;105288;1298;65560;-73
2022/12/10 04:44:37;;;;;;;66.70;46.50;;;;;;;0.51;100.00;97735.66;105423;1291;59825;-73
2022/12/10 04:47:05;;;;;;;52.90;39.60;;;;;;;0.53;100.00;97727.52;104700;1296;1002389;-73
2022/12/10 04:49:32;;;;;;;54.00;40.60;;;;;;;0.55;100.00;97726.58;105452;1297;65359;-73
2022/12/10 04:51:59;;;;;;;55.70;43.30;;;;;;;0.56;100.00;97727.58;105466;1290;60253;-73
2022/12/10 04:54:26;;;;;;;58.40;43.60;;;;;;;0.56;100.00;97732.63;105329;1300;64919;-73
2022/12/10 04:56:52;;;;;;;60.20;43.90;;;;;;;0.57;100.00;97743.59;105439;1290;59814;-74
2022/12/10 04:59:18;;;;;;;46.70;35.90;;;;;;;0.58;100.00;97751.08;105771;1286;59650;-73
2022/12/10 05:01:44;;;;;;;46.40;37.80;;;;;;;0.57;100.00;97754.26;105921;1283;59761;-72
2022/12/10 05:04:12;;;;;;;42.30;35.10;;;;;;;0.57;100.00;97758.42;105958;1290;59655;-73
2022/12/10 05:06:40;;;;;;;45.40;36.80;;;;;;;0.59;100.00;97762.38;105952;1283;72402;-73
2022/12/10 05:09:06;;;;;;;45.90;36.20;;;;;;;0.60;100.00;97768.79;105953;1289;59719;-72
2022/12/10 05:11:33;;;;;;;46.00;35.60;;;;;;;0.62;100.00;97773.45;105923;1284;59734;-72
2022/12/10 05:14:06;;;;;;;45.50;34.20;;;;;;;0.63;100.00;97781.95;105944;1283;68003;-73
2022/12/10 05:16:33;;;;;;;48.40;37.40;;;;;;;0.62;100.00;97785.48;105962;1290;59747;-73
2022/12/10 05:19:00;;;;;;;51.80;38.30;;;;;;;0.62;100.00;97787.76;105899;1291;71622;-73
2022/12/10 05:24:14;;;;;;;52.90;38.50;;;;;;;0.60;100.00;97787.48;105952;1291;59745;-74
2022/12/10 05:26:39;;;;;;;51.80;39.90;;;;;;;0.59;100.00;97784.90;105949;1290;75303;-73
2022/12/10 05:29:06;;;;;;;58.60;44.50;;;;;;;0.59;100.00;97781.44;105904;1290;59724;-73
2022/12/10 05:31:32;;;;;;;59.10;44.50;;;;;;;0.60;100.00;97777.90;105627;1290;59908;-73
2022/12/10 05:33:58;;;;;;;65.70;49.20;;;;;;;0.60;100.00;97769.34;105901;1290;59723;-74
2022/12/10 05:36:28;;;;;;;61.30;45.90;;;;;;;0.59;100.00;97768.85;105925;1283;60135;-72
2022/12/10 05:38:56;;;;;;;59.40;45.90;;;;;;;0.58;100.00;97766.95;105949;1290;66619;-73
2022/12/10 05:41:25;;;;;;;66.50;49.20;;;;;;;0.58;100.00;97757.89;105894;1283;68822;-74
2022/12/10 05:43:54;;;;;;;62.80;47.90;;;;;;;0.59;100.00;97753.49;105938;1290;63695;-73
2022/12/10 05:46:23;;;;;;;63.20;49.50;;;;;;;0.59;100.00;97747.49;105927;1291;59965;-74
2022/12/10 05:48:50;;;;;;;54.10;45.20;;;;;;;0.60;100.00;97741.69;105965;1289;59528;-74
2022/12/10 05:51:21;;;;;;;61.00;46.20;;;;;;;0.60;100.00;97746.62;105765;1292;74481;-74
2022/12/10 05:53:48;;;;;;;;;;;;;;;0.58;100.00;97743.71;105929;1291;61297;-74
2022/12/10 05:56:19;;;;;;;53.00;40.70;;;;;;;0.57;100.00;97748.66;105951;1291;63845;-73
2022/12/10 05:58:48;;;;;;;49.60;38.80;;;;;;;0.57;100.00;97752.51;105934;1290;60073;-73
2022/12/10 06:01:20;;;;;;;50.20;41.00;;;;;;;0.56;100.00;97750.45;105923;1290;59640;-73
2022/12/10 06:03:46;;;;;;;48.70;38.40;;;;;;;0.56;100.00;97741.73;105935;1289;68052;-73
2022/12/10 06:06:14;;;;;;;48.60;40.40;;;;;;;0.55;100.00;97733.36;105911;1290;70128;-73
2022/12/10 06:08:40;;;;;;;58.50;44.90;;;;;;;0.56;100.00;97724.80;105941;1291;64075;-73
2022/12/10 06:11:09;;;;;;;50.20;39.90;;;;;;;0.55;100.00;97724.27;105931;1289;60874;-73
2022/12/10 06:13:37;;;;;;;50.70;40.70;;;;;;;0.55;100.00;97738.45;105938;1290;59534;-73
2022/12/10 06:16:06;;;;;;;49.50;39.40;;;;;;;0.55;100.00;97748.77;105930;1291;77022;-73
2022/12/10 06:18:32;;;;;;;52.10;41.30;;;;;;;0.55;100.00;97750.52;105927;1282;70063;-73
2022/12/10 06:20:59;;;;;;;56.40;42.10;;;;;;;0.55;100.00;97757.49;105921;1290;65210;-74
2022/12/10 06:23:24;;;;;;;54.00;43.60;;;;;;;0.55;100.00;97766.57;105917;1290;59838;-73
2022/12/10 06:25:50;;;;;;;55.90;43.50;;;;;;;0.57;100.00;97777.48;105935;1291;59726;-73
2022/12/10 06:28:16;;;;;;;58.30;41.80;;;;;;;0.59;100.00;97785.96;105934;1283;59773;-73
2022/12/10 06:30:42;;;;;;;50.00;38.40;;;;;;;0.61;100.00;97793.06;105938;1289;59786;-73
2022/12/10 06:33:08;;;;;;;46.60;36.50;;;;;;;0.62;100.00;97797.02;105928;1291;59746;-72
2022/12/10 06:35:34;;;;;;;48.00;37.50;;;;;;;0.65;100.00;97802.65;105910;1290;59757;-73
2022/12/10 06:38:00;;;;;;;51.10;39.30;;;;;;;0.68;100.00;97806.39;105994;1287;60086;-74
2022/12/10 06:40:26;;;;;;;46.70;36.20;;;;;;;0.69;100.00;97811.77;105940;1290;61282;-73
2022/12/10 06:42:52;;;;;;;46.10;35.70;;;;;;;0.68;100.00;97818.23;105899;1290;59845;-73
2022/12/10 06:45:18;;;;;;;50.60;39.60;;;;;;;0.69;100.00;97827.47;105939;1290;59758;-73
2022/12/10 06:47:44;;;;;;;50.90;38.40;;;;;;;0.70;100.00;97837.38;105946;1291;59606;-73
2022/12/10 06:50:11;;;;;;;52.90;40.20;;;;;;;0.71;100.00;97845.39;105937;1291;59864;-72
2022/12/10 06:52:38;;;;;;;54.10;40.50;;;;;;;0.73;100.00;97851.09;105960;1290;59791;-73
2022/12/10 06:55:04;;;;;;;53.70;39.20;;;;;;;0.74;100.00;97858.55;105940;1291;59730;-74
2022/12/10 06:57:30;;;;;;;53.10;38.90;;;;;;;0.73;100.00;97865.73;105681;1293;59808;-74
2022/12/10 06:59:56;;;;;;;54.90;39.80;;;;;;;0.74;100.00;97867.95;105934;1290;59588;-73
2022/12/10 07:02:22;;;;;;;51.10;37.70;;;;;;;0.74;100.00;97859.75;105952;1285;59729;-74
2022/12/10 07:04:48;;;;;;;64.00;50.60;;;;;;;0.76;100.00;97853.38;105709;1291;60190;-74
2022/12/10 07:07:14;;;;;;;65.90;51.40;;;;;;;0.77;100.00;97848.23;105915;1291;59911;-74
2022/12/10 07:09:40;;;;;;;65.40;50.80;;;;;;;0.78;100.00;97836.66;105974;1290;59698;-73
2022/12/10 07:12:06;;;;;;;72.90;54.20;;;;;;;0.79;100.00;97835.03;105932;1295;76745;-73
2022/12/10 07:14:32;;;;;;;62.60;46.80;;;;;;;0.80;100.00;97836.89;105928;1287;60066;-73
2022/12/10 07:16:58;;;;;;;66.80;47.80;;;;;;;0.83;100.00;97841.84;105615;1289;59849;-73
2022/12/10 07:19:24;;;;;;;59.10;45.30;;;;;;;0.86;100.00;97836.80;105871;1287;59707;-73
2022/12/10 07:21:51;;;;;;;58.20;44.00;;;;;;;0.88;100.00;97837.27;105934;1291;59668;-73
2022/12/10 07:24:18;;;;;;;70.10;51.30;;;;;;;0.92;100.00;97840.23;105937;1291;59761;-72
2022/12/10 07:26:47;;;;;;;62.60;50.90;;;;;;;0.94;100.00;97841.86;105929;1287;59638;-73
2022/12/10 07:29:18;;;;;;;73.00;53.80;;;;;;;0.98;100.00;97844.49;105613;1292;63911;-73
2022/12/10 07:31:44;;;;;;;75.90;55.20;;;;;;;1.01;100.00;97845.56;105926;1287;59624;-73
2022/12/10 07:34:11;;;;;;;100.20;68.90;;;;;;;1.03;100.00;97843.02;105929;1290;59754;-73
2022/12/10 07:36:38;;;;;;;76.60;60.80;;;;;;;1.03;100.00;97838.64;105919;1291;67651;-73
2022/12/10 07:39:06;;;;;;;75.90;58.90;;;;;;;1.04;100.00;97842.65;105948;1291;59648;-73
2022/12/10 07:41:32;;;;;;;81.70;64.00;;;;;;;1.06;100.00;97849.54;105914;1291;65373;-74
2022/12/10 07:44:03;;;;;;;97.80;74.50;;;;;;;1.08;100.00;97851.34;105728;1293;59644;-73
2022/12/10 07:46:31;;;;;;;71.50;55.80;;;;;;;1.11;100.00;97852.27;105939;1289;59721;-70
2022/12/10 07:49:01;;;;;;;71.40;59.40;;;;;;;1.14;100.00;97856.33;105910;1289;76550;-73
2022/12/10 07:51:28;;;;;;;67.00;53.50;;;;;;;1.16;100.00;97855.35;105775;1293;61230;-71
2022/12/10 07:53:55;;;;;;;69.50;51.10;;;;;;;1.18;100.00;97855.63;104456;1283;1002859;-73
2022/12/10 07:56:23;;;;;;;73.90;56.40;;;;;;;1.18;100.00;97857.17;105751;1286;59724;-71
2022/12/10 07:58:51;;;;;;;81.60;58.50;;;;;;;1.21;100.00;97858.83;105928;1292;60097;-70
2022/12/10 08:01:22;;;;;;;68.30;53.50;;;;;;;1.21;100.00;97854.58;105941;1284;75366;-70
2022/12/10 08:03:48;;;;;;;60.20;49.90;;;;;;;1.24;100.00;97851.13;105898;1297;61126;-70
2022/12/10 08:06:18;;;;;;;64.90;49.70;;;;;;;1.28;100.00;97848.30;105583;1295;59836;-70
2022/12/10 08:08:45;;;;;;;;;;;;;;;1.34;100.00;97851.00;105919;1288;59625;-71
2022/12/10 08:11:13;;;;;;;65.60;50.20;;;;;;;1.37;100.00;97850.16;105944;1287;59690;-71
2022/12/10 08:13:39;;;;;;;59.80;48.00;;;;;;;1.40;100.00;97848.98;105937;1289;67824;-71
2022/12/10 08:16:07;;;;;;;59.90;49.30;;;;;;;1.42;100.00;97851.00;105941;1289;59769;-71
2022/12/10 08:18:34;;;;;;;55.70;48.70;;;;;;;1.41;100.00;97856.27;105922;1290;64228;-71
2022/12/10 08:21:05;;;;;;;59.00;46.80;;;;;;;1.41;100.00;97860.65;105643;1295;60053;-71
2022/12/10 08:23:31;;;;;;;54.20;45.20;;;;;;;1.44;100.00;97862.40;105912;1289;59741;-71
2022/12/10 08:25:57;;;;;;;56.10;44.80;;;;;;;1.51;100.00;97865.40;105712;1296;60004;-71
2022/12/10 08:28:23;;;;;;;55.40;46.70;;;;;;;1.59;100.00;97866.27;105954;1284;59874;-71
2022/12/10 08:30:49;;;;;;;52.10;45.40;;;;;;;1.64;100.00;97866.72;105750;1292;59922;-71
2022/12/10 08:33:15;;;;;;;48.60;40.70;;;;;;;1.67;100.00;97869.52;105917;1298;59725;-72
2022/12/10 08:35:41;;;;;;;44.10;37.10;;;;;;;1.70;100.00;97872.17;105940;1290;59726;-70
2022/12/10 08:38:07;;;;;;;43.00;37.80;;;;;;;1.70;100.00;97867.79;105940;1287;59644;-70
2022/12/10 08:40:33;;;;;;;43.60;37.00;;;;;;;1.70;100.00;97866.59;105981;1291;59758;-70
2022/12/10 08:42:59;;;;;;;37.20;32.80;;;;;;;1.72;100.00;97862.27;105922;1291;59754;-70
2022/12/10 08:45:25;;;;;;;37.00;31.20;;;;;;;1.77;100.00;97858.89;105937;1283;59657;-70
2022/12/10 08:47:51;;;;;;;36.50;32.30;;;;;;;1.78;100.00;97863.55;105930;1295;59795;-70
2022/12/10 08:50:17;;;;;;;36.90;31.70;;;;;;;1.79;100.00;97865.80;105948;1292;59691;-71
2022/12/10 08:52:43;;;;;;;35.90;30.80;;;;;;;1.78;100.00;97871.27;105899;1296;59844;-71
2022/12/10 08:55:09;;;;;;;37.50;30.30;;;;;;;1.77;100.00;97873.94;105580;1300;59718;-70
2022/12/10 08:57:36;;;;;;;39.30;31.00;;;;;;;1.75;100.00;97871.44;105950;1291;59687;-70
2022/12/10 09:00:03;;;;;;;33.90;29.00;;;;;;;1.74;100.00;97866.92;105949;1295;59832;-70
2022/12/10 09:02:29;;;;;;;38.10;30.50;;;;;;;1.72;100.00;97868.38;105947;1291;59640;-70
2022/12/10 09:04:56;;;;;;;37.20;31.60;;;;;;;1.75;100.00;97864.94;105652;1288;59763;-70
2022/12/10 09:07:22;;;;;;;34.60;30.20;;;;;;;1.78;100.00;97862.52;105928;1295;59661;-70
2022/12/10 09:09:48;;;;;;;33.40;27.60;;;;;;;1.80;100.00;97857.88;105937;1284;59674;-71
2022/12/10 09:12:15;;;;;;;35.50;30.70;;;;;;;1.82;100.00;97859.55;105943;1292;59831;-70
2022/12/10 09:14:41;;;;;;;30.50;26.10;;;;;;;1.82;100.00;97858.81;105911;1290;60084;-69
2022/12/10 09:17:08;;;;;;;30.60;27.30;;;;;;;1.84;100.00;97858.73;105926;1292;59628;-70
2022/12/10 09:19:34;;;;;;;32.00;26.20;;;;;;;1.90;100.00;97851.27;105906;1282;59719;-70
2022/12/10 09:22:00;;;;;;;31.90;25.90;;;;;;;1.96;100.00;97852.00;105933;1290;59660;-70
2022/12/10 09:24:26;;;;;;;27.80;24.70;;;;;;;2.01;100.00;97852.94;105929;1295;59807;-70
2022/12/10 09:26:53;;;;;;;32.20;26.30;;;;;;;2.05;100.00;97858.90;105919;1292;59745;-70
2022/12/10 09:29:18;;;;;;;25.20;21.50;;;;;;;2.05;100.00;97862.02;105921;1290;59781;-70
2022/12/10 09:31:44;;;;;;;28.10;24.90;;;;;;;2.03;100.00;97856.52;105955;1283;60540;-70
2022/12/10 09:34:10;;;;;;;25.20;22.60;;;;;;;2.03;100.00;97849.87;105931;1287;68006;-70
2022/12/10 09:36:36;;;;;;;25.30;21.60;;;;;;;2.08;100.00;97848.92;105919;1292;59871;-70
2022/12/10 09:39:02;;;;;;;26.10;21.50;;;;;;;2.13;100.00;97846.37;105920;1291;59797;-70
2022/12/10 09:42:07;;;;;;;26.30;22.30;;;;;;;2.19;100.00;97842.54;105931;1291;59817;-71
2022/12/10 09:44:41;;;;;;;22.70;20.30;;;;;;;2.23;100.00;97837.82;105943;1291;59950;-71
2022/12/10 09:47:11;;;;;;;23.00;20.10;;;;;;;2.24;100.00;97836.55;105186;1291;1003386;-71
2022/12/10 09:50:04;;;;;;;24.30;20.70;;;;;;;2.28;100.00;97834.38;105938;1287;59787;-71
2022/12/10 09:52:38;;;;;;;22.10;19.90;;;;;;;2.34;100.00;97830.56;105928;1296;65072;-70
2022/12/10 09:55:12;;;;;;;21.90;19.70;;;;;;;2.35;100.00;97833.52;105912;1297;59713;-70
2022/12/10 09:57:46;;;;;;;24.30;21.20;;;;;;;2.32;100.00;97837.00;105942;1298;59866;-71
2022/12/10 10:00:31;;;;;;;24.40;20.10;;;;;;;2.28;100.00;97840.55;105689;1295;68225;-70
2022/12/10 10:02:59;;;;;;;23.50;21.00;;;;;;;2.23;100.00;97841.84;105912;1295;59709;-70
2022/12/10 10:05:30;;;;;;;21.70;19.40;;;;;;;2.21;100.00;97842.48;105929;1290;64922;-70
2022/12/10 10:08:00;;;;;;;23.40;20.90;;;;;;;2.19;100.00;97842.71;105757;1295;59768;-70
2022/12/10 10:10:29;;;;;;;;;;;;;;;2.22;100.00;97842.77;105949;1296;59953;-71
2022/12/10 10:13:01;;;;;;;23.20;20.00;;;;;;;2.24;100.00;97847.23;105788;1290;67697;-70
2022/12/10 10:15:33;;;;;;;25.30;22.70;;;;;;;2.23;100.00;97847.83;105950;1292;59744;-70
2022/12/10 10:18:14;;;;;;;25.00;20.90;;;;;;;2.19;100.00;97852.72;105921;1295;63862;-70
2022/12/10 10:20:39;;;;;;;24.20;21.60;;;;;;;2.17;100.00;97853.89;105900;1292;60848;-71
2022/12/10 10:23:07;;;;;;;26.90;20.50;;;;;;;2.16;100.00;97849.75;105916;1287;59713;-70
2022/12/10 10:25:33;;;;;;;23.30;20.80;;;;;;;2.16;100.00;97847.48;105927;1287;67909;-71
2022/12/10 10:27:59;;;;;;;24.30;21.20;;;;;;;2.13;100.00;97850.23;105952;1291;59570;-71
2022/12/10 10:30:25;;;;;;;23.80;20.10;;;;;;;2.13;100.00;97851.13;105899;1294;59741;-70
2022/12/10 10:32:55;;;;;;;23.40;20.30;;;;;;;2.18;100.00;97844.88;105837;1290;59867;-69
2022/12/10 10:35:30;;;;;;;25.80;23.20;;;;;;;2.26;100.00;97830.83;105931;1290;59630;-80
2022/12/10 10:37:59;;;;;;;26.30;21.00;;;;;;;2.32;100.00;97822.25;105951;1290;66585;-84
2022/12/10 10:40:29;;;;;;;26.50;21.80;;;;;;;2.34;100.00;97821.27;105817;1295;61120;-83
2022/12/10 10:42:58;;;;;;;25.70;22.00;;;;;;;2.34;100.00;97822.35;105960;1295;64187;-85
2022/12/10 10:45:30;;;;;;;24.00;20.20;;;;;;;2.33;100.00;97824.16;105959;1295;59772;-85
2022/12/10 10:48:07;;;;;;;24.10;21.50;;;;;;;2.30;100.00;97828.70;105819;1289;192164;-85
2022/12/10 10:50:43;;;;;;;25.90;22.90;;;;;;;2.23;100.00;97836.73;105942;1292;76386;-85
2022/12/10 10:53:28;;;;;;;26.40;22.20;;;;;;;2.18;100.00;97840.33;105969;1290;61049;-81
2022/12/10 10:55:58;;;;;;;26.30;22.40;;;;;;;2.13;100.00;97840.05;106072;1280;64079;-83
2022/12/10 10:58:26;;;;;;;26.90;23.50;;;;;;;2.11;100.00;97842.10;106037;1288;59583;-82
2022/12/10 11:01:01;;;;;;;24.30;21.40;;;;;;;2.11;100.00;97846.85;105831;1292;59801;-83
2022/12/10 11:03:30;;;;;;;26.70;23.80;;;;;;;2.09;100.00;97850.98;105959;1289;66458;-81
2022/12/10 11:05:58;;;;;;;27.40;23.50;;;;;;;2.07;100.00;97845.45;105926;1281;60547;-79
2022/12/10 11:08:29;;;;;;;27.90;24.50;;;;;;;2.06;100.00;97840.42;105921;1290;65042;-82
2022/12/10 11:11:02;;;;;;;27.30;24.10;;;;;;;2.04;100.00;97835.62;105944;1291;59781;-82
2022/12/10 11:13:33;;;;;;;27.50;24.30;;;;;;;2.03;100.00;97831.30;105929;1284;59692;-80
2022/12/10 11:16:17;;;;;;;26.70;23.80;;;;;;;2.02;100.00;97830.30;104440;1291;1002377;-81
2022/12/10 11:19:01;;;;;;;25.40;22.70;;;;;;;1.99;100.00;97834.15;105942;1284;59792;-81
2022/12/10 11:21:33;;;;;;;25.20;21.10;;;;;;;1.98;100.00;97833.48;105815;1284;63778;-81
2022/12/10 11:24:09;;;;;;;26.90;24.20;;;;;;;1.98;100.00;97833.14;105793;1292;60140;-81
2022/12/10 11:26:45;;;;;;;30.50;26.00;;;;;;;1.98;100.00;97830.69;105914;1285;61618;-82
2022/12/10 11:29:42;;;;;;;25.00;21.80;;;;;;;1.99;100.00;97828.16;105948;1284;76740;-81
2022/12/10 11:32:11;;;;;;;27.60;23.00;;;;;;;1.97;100.00;97830.39;105935;1289;61069;-83